Terminal Aerodrome Forecast
Issued by NWS Sterling, VA

Current Version | Previous Version | Graphics & Text | Print | Product List | Glossary On
Versions: 1 2 3 4 5 6 7 8 9 10 11 12
000
FTUS41 KLWX 311743
TAFMRB
TAF
KMRB 311743Z 3118/0118 19015G30KT P6SM BKN060
     FM311900 30015G30KT 5SM -SHRA BKN050 OVC250
     FM010100 33014G24KT P6SM BKN025
     FM010500 32011KT P6SM SCT250
     FM010800 32007KT P6SM FEW250=

USA.gov is the U.S. government's official web portal to all federal, state and local government web resources and services.